| time (UTC) | temp F | wind direction | speed MPH | gust MPH | rain 1hr in | rain 24hr in | rain mn in | humidity % | barometer mb |
| 20260906040009 | 77 | 0.0 | 0.0 | 0.00 | 0.20 | 0.20 | 91 | 1012.8 | |
| 20260906035503 | 77 | 0.0 | 0.0 | 0.00 | 0.20 | 0.20 | 92 | 1012.8 | |
| 20260906035006 | 77 | 0.0 | 0.0 | 0.00 | 0.20 | 0.20 | 92 | 1012.8 | |
| 20260906034512 | 76 | 0.0 | 0.0 | 0.00 | 0.20 | 0.20 | 92 | 1012.8 | |
| 20260906034004 | 76 | 0.0 | 0.0 | 0.00 | 0.20 | 0.20 | 92 | 1012.8 | |
| 20260906033503 | 77 | 0.0 | 0.0 | 0.00 | 0.20 | 0.20 | 93 | 1012.9 | |
| 20260906033010 | 77 | 0.0 | 0.0 | 0.00 | 0.20 | 0.20 | 93 | 1012.9 | |
| 20260906032504 | 77 | 0.0 | 0.0 | 0.00 | 0.20 | 0.20 | 93 | 1013.1 | |
| 20260906032004 | 77 | 0.0 | 0.0 | 0.00 | 0.20 | 0.20 | 93 | 1013.1 | |
| 20260906031508 | 77 | 0.0 | 0.0 | 0.00 | 0.20 | 0.20 | 92 | 1013.1 | |
| 20260906031004 | 77 | 0.0 | 0.0 | 0.00 | 0.20 | 0.20 | 92 | 1013.1 | |
| 20260906030504 | 77 | 0.0 | 0.0 | 0.00 | 0.20 | 0.20 | 91 | 1013.1 | |
| 20260906030008 | 78 | 0.0 | 0.0 | 0.00 | 0.20 | 0.20 | 91 | 1013.1 | |
| 20260906025503 | 78 | 0.0 | 0.0 | 0.00 | 0.20 | 0.20 | 91 | 1013.0 | |
| 20260906025005 | 78 | 0.0 | 0.0 | 0.00 | 0.20 | 0.20 | 91 | 1013.0 | |
| 20260906024513 | 78 | 0.0 | 0.0 | 0.00 | 0.20 | 0.20 | 91 | 1012.9 | |
| 20260906024003 | 78 | 0.0 | 0.0 | 0.00 | 0.20 | 0.20 | 92 | 1012.9 | |
| 20260906023507 | 78 | 0.0 | 0.0 | 0.00 | 0.20 | 0.20 | 91 | 1012.9 | |
| 20260906023019 | 78 | 0.0 | 0.0 | 0.00 | 0.20 | 0.20 | 91 | 1012.8 | |
| 20260906022504 | 78 | 0.0 | 0.0 | 0.00 | 0.20 | 0.20 | 90 | 1012.7 | |
| 20260906022004 | 78 | 0.0 | 0.0 | 0.00 | 0.20 | 0.20 | 91 | 1012.5 | |
| 20260906021514 | 78 | 0.0 | 0.0 | 0.00 | 0.20 | 0.20 | 90 | 1012.3 | |
| 20260906021004 | 79 | 0.0 | 0.0 | 0.00 | 0.20 | 0.20 | 90 | 1012.2 | |
| 20260906020504 | 79 | 0.0 | 0.0 | 0.00 | 0.20 | 0.20 | 88 | 1012.0 | |
| 20260906020010 | 80 | 0.0 | 0.0 | 0.00 | 0.20 | 0.20 | 88 | 1012.0 | |
| 20260906015507 | 80 | 0.0 | 0.0 | 0.00 | 0.20 | 0.20 | 84 | 1012.1 | |
| 20260906015006 | 80 | 0.0 | 0.0 | 0.00 | 0.20 | 0.20 | 83 | 1012.1 | |
| 20260906014519 | 80 | 0.0 | 0.0 | 0.00 | 0.20 | 0.20 | 82 | 1012.0 | |
| 20260906014008 | 81 | 0.0 | 0.0 | 0.00 | 0.20 | 0.20 | 83 | 1012.0 | |
| 20260906013506 | 81 | 0.0 | 0.0 | 0.00 | 0.20 | 0.20 | 81 | 1011.9 | |
| 20260906013015 | 81 | 0.0 | 0.0 | 0.00 | 0.20 | 0.20 | 85 | 1011.9 | |
| 20260906012508 | 81 | 0.0 | 0.0 | 0.00 | 0.20 | 0.20 | 87 | 1011.8 | |
| 20260906012007 | 80 | 0.0 | 0.0 | 0.00 | 0.20 | 0.20 | 85 | 1011.7 | |
| 20260906011508 | 81 | 0.0 | 0.0 | 0.00 | 0.20 | 0.20 | 86 | 1011.7 | |
| 20260906011007 | 81 | 0.0 | 0.0 | 0.00 | 0.20 | 0.20 | 85 | 1011.6 | |
| 20260906010504 | 82 | 0.0 | 0.0 | 0.00 | 0.20 | 0.20 | 86 | 1011.5 | |
| 20260906010014 | 82 | 0.0 | 0.0 | 0.00 | 0.20 | 0.20 | 81 | 1011.4 | |
| 20260906005504 | 83 | 0.0 | 0.0 | 0.00 | 0.20 | 0.20 | 78 | 1011.4 | |
| 20260906005004 | 83 | 0.0 | 0.0 | 0.00 | 0.20 | 0.20 | 78 | 1011.4 | |
| 20260906004510 | 83 | 0.0 | 0.0 | 0.00 | 0.20 | 0.20 | 78 | 1011.3 | |
| 20260906004005 | 84 | 0.0 | 0.0 | 0.00 | 0.20 | 0.20 | 81 | 1011.3 | |
| 20260906003508 | 84 | 0.0 | 0.0 | 0.00 | 0.20 | 0.20 | 76 | 1011.2 | |
| 20260906003016 | 83 | 0.0 | 0.0 | 0.00 | 0.20 | 0.20 | 80 | 1011.2 | |
| 20260906002506 | 83 | 0.0 | 0.0 | 0.00 | 0.20 | 0.20 | 87 | 1011.2 | |
| 20260906002005 | 84 | 0.0 | 0.0 | 0.00 | 0.20 | 0.20 | 87 | 1011.2 | |
| 20260906001516 | 84 | 0.0 | 0.0 | 0.00 | 0.20 | 0.20 | 87 | 1011.2 | |
| 20260906001007 | 84 | 0.0 | 0.0 | 0.00 | 0.20 | 0.20 | 83 | 1011.4 | |
| 20260906000504 | 85 | 0.0 | 0.0 | 0.00 | 0.20 | 0.20 | 78 | 1011.4 | |
| 20260906000013 | 87 | 0.0 | 0.0 | 0.00 | 0.20 | 0.20 | 75 | 1011.4 | |
| 20260905235506 | 88 | 0.0 | 0.0 | 0.00 | 0.20 | 0.20 | 68 | 1011.4 | |
| 20260905235008 | 88 | 0.0 | 0.0 | 0.00 | 0.20 | 0.20 | 71 | 1011.4 | |
| 20260905234512 | 88 | 0.0 | 0.0 | 0.00 | 0.20 | 0.20 | 71 | 1011.3 | |
| 20260905234007 | 87 | 0.0 | 0.0 | 0.00 | 0.20 | 0.20 | 74 | 1011.4 | |
| 20260905233506 | 87 | 0.0 | 0.0 | 0.01 | 0.20 | 0.20 | 76 | 1011.3 | |
| 20260905233016 | 87 | 0.0 | 0.0 | 0.01 | 0.20 | 0.20 | 77 | 1011.2 | |
| 20260905232510 | 87 | 0.0 | 0.0 | 0.07 | 0.20 | 0.20 | 78 | 1011.2 | |
| 20260905232007 | 86 | 0.0 | 0.0 | 0.18 | 0.20 | 0.20 | 85 | 1011.2 | |
| 20260905231518 | 86 | 0.0 | 0.0 | 0.20 | 0.20 | 0.20 | 82 | 1011.2 | |
| 20260905231006 | 86 | 0.0 | 0.0 | 0.20 | 0.20 | 0.20 | 80 | 1011.2 | |
| 20260905230506 | 86 | 0.0 | 0.0 | 0.20 | 0.20 | 0.20 | 82 | 1011.2 | |
| 20260905230015 | 85 | 0.0 | 0.0 | 0.20 | 0.20 | 0.20 | 84 | 1011.2 | |
| 20260905225509 | 85 | 0.0 | 0.0 | 0.20 | 0.20 | 0.20 | 83 | 1011.0 | |
| 20260905225008 | 84 | 0.0 | 0.0 | 0.20 | 0.20 | 0.20 | 83 | 1011.2 | |
| 20260905224518 | 83 | 0.0 | 0.0 | 0.20 | 0.20 | 0.20 | 86 | 1011.3 | |
| 20260905224008 | 83 | 0.0 | 0.0 | 0.20 | 0.20 | 0.20 | 82 | 1011.4 | |
| 20260905223503 | 84 | 0.0 | 0.0 | 0.19 | 0.19 | 0.19 | 78 | 1011.4 | |
| 20260905223018 | 83 | 0.0 | 0.0 | 0.19 | 0.19 | 0.19 | 79 | 1011.5 | |
| 20260905222504 | 87 | 0.0 | 0.0 | 0.13 | 0.13 | 0.13 | 72 | 1011.9 | |
| 20260905222008 | 96 | 0.0 | 0.0 | 0.02 | 0.02 | 0.02 | 54 | 1011.7 | |
| 20260905221522 | 98 | 0.0 | 0.0 | 0.00 | 0.00 | 0.00 | 45 | 1011.5 | |
| 20260905221008 | 98 | 0.0 | 0.0 | 0.00 | 0.00 | 0.00 | 44 | 1011.3 | |
| 20260905220510 | 99 | 0.0 | 0.0 | 0.00 | 0.00 | 0.00 | 44 | 1011.1 | |
| 20260905220013 | 99 | 0.0 | 0.0 | 0.00 | 0.00 | 0.00 | 43 | 1011.1 | |
| 20260905215510 | 100 | 0.0 | 0.0 | 0.00 | 0.00 | 0.00 | 39 | 1011.1 | |
| 20260905215008 | 100 | 0.0 | 0.0 | 0.00 | 0.00 | 0.00 | 38 | 1010.9 | |
| 20260905214520 | 100 | 0.0 | 0.0 | 0.00 | 0.00 | 0.00 | 38 | 1010.9 | |
| 20260905214006 | 100 | 0.0 | 0.0 | 0.00 | 0.00 | 0.00 | 37 | 1010.9 | |
| 20260905213513 | 100 | 0.0 | 0.0 | 0.00 | 0.00 | 0.00 | 37 | 1010.9 | |
| 20260905213018 | 101 | 0.0 | 0.0 | 0.00 | 0.00 | 0.00 | 37 | 1010.9 | |
| 20260905212508 | 102 | 0.0 | 0.0 | 0.00 | 0.00 | 0.00 | 36 | 1010.9 | |
| 20260905212008 | 101 | 0.0 | 0.0 | 0.00 | 0.00 | 0.00 | 38 | 1011.0 | |
| 20260905211528 | 100 | 0.0 | 0.0 | 0.00 | 0.00 | 0.00 | 39 | 1011.2 | |
| 20260905211008 | 100 | 0.0 | 0.0 | 0.00 | 0.00 | 0.00 | 39 | 1011.2 | |
| 20260905210508 | 100 | 0.0 | 0.0 | 0.00 | 0.00 | 0.00 | 39 | 1011.3 | |
| 20260905210016 | 101 | 0.0 | 0.0 | 0.00 | 0.00 | 0.00 | 38 | 1011.4 | |
| 20260905205508 | 102 | 0.0 | 0.0 | 0.00 | 0.00 | 0.00 | 36 | 1011.4 | |
| 20260905205005 | 103 | 0.0 | 0.0 | 0.00 | 0.00 | 0.00 | 36 | 1011.4 | |
| 20260905204520 | 103 | 0.0 | 0.0 | 0.00 | 0.00 | 0.00 | 36 | 1011.5 | |
| 20260905204011 | 103 | 0.0 | 0.0 | 0.00 | 0.00 | 0.00 | 36 | 1011.6 | |
| 20260905203509 | 104 | 0.0 | 0.0 | 0.00 | 0.00 | 0.00 | 34 | 1011.7 | |
| 20260905203017 | 104 | 0.0 | 0.0 | 0.00 | 0.00 | 0.00 | 35 | 1011.8 | |
| 20260905202510 | 103 | 0.0 | 0.0 | 0.00 | 0.00 | 0.00 | 36 | 1011.9 | |
| 20260905202009 | 103 | 0.0 | 0.0 | 0.00 | 0.00 | 0.00 | 38 | 1011.9 | |
| 20260905201523 | 102 | 0.0 | 0.0 | 0.00 | 0.00 | 0.00 | 37 | 1012.0 | |
| 20260905201009 | 102 | 0.0 | 0.0 | 0.00 | 0.00 | 0.00 | 37 | 1012.1 | |
| 20260905200513 | 102 | 0.0 | 0.0 | 0.00 | 0.00 | 0.00 | 37 | 1012.1 | |
| 20260905200024 | 102 | 0.0 | 0.0 | 0.00 | 0.00 | 0.00 | 37 | 1012.2 | |
| 20260905195506 | 104 | 0.0 | 0.0 | 0.00 | 0.00 | 0.00 | 37 | 1012.3 | |
| 20260905195007 | 104 | 0.0 | 0.0 | 0.00 | 0.00 | 0.00 | 37 | 1012.4 | |
| 20260905194517 | 103 | 0.0 | 0.0 | 0.00 | 0.00 | 0.00 | 37 | 1012.5 | |
| 20260905194012 | 102 | 0.0 | 0.0 | 0.00 | 0.00 | 0.00 | 38 | 1012.7 | |
| 20260905193511 | 103 | 0.0 | 0.0 | 0.00 | 0.00 | 0.00 | 37 | 1012.7 | |
| 20260905193023 | 102 | 0.0 | 0.0 | 0.00 | 0.00 | 0.00 | 38 | 1012.8 | |
| 20260905192512 | 102 | 0.0 | 0.0 | 0.00 | 0.00 | 0.00 | 37 | 1012.9 | |
| 20260905192007 | 102 | 0.0 | 0.0 | 0.00 | 0.00 | 0.00 | 38 | 1012.9 | |
| 20260905191523 | 102 | 0.0 | 0.0 | 0.00 | 0.00 | 0.00 | 38 | 1013.0 | |
| 20260905191012 | 101 | 0.0 | 0.0 | 0.00 | 0.00 | 0.00 | 39 | 1013.1 | |
| 20260905190514 | 101 | 0.0 | 0.0 | 0.00 | 0.00 | 0.00 | 38 | 1013.2 | |
| 20260905190018 | 101 | 0.0 | 0.0 | 0.00 | 0.00 | 0.00 | 39 | 1013.2 | |
| 20260905185511 | 101 | 0.0 | 0.0 | 0.00 | 0.00 | 0.00 | 39 | 1013.3 | |
| 20260905185011 | 102 | 0.0 | 0.0 | 0.00 | 0.00 | 0.00 | 39 | 1013.3 | |
| 20260905184517 | 102 | 0.0 | 0.0 | 0.00 | 0.00 | 0.00 | 39 | 1013.4 | |
| 20260905184008 | 102 | 0.0 | 0.0 | 0.00 | 0.00 | 0.00 | 38 | 1013.5 | |
| 20260905183511 | 102 | 0.0 | 0.0 | 0.00 | 0.00 | 0.00 | 39 | 1013.5 | |
| 20260905183019 | 101 | 0.0 | 0.0 | 0.00 | 0.00 | 0.00 | 40 | 1013.6 | |
| 20260905182508 | 101 | 0.0 | 0.0 | 0.00 | 0.00 | 0.00 | 39 | 1013.8 | |
| 20260905182012 | 101 | 0.0 | 0.0 | 0.00 | 0.00 | 0.00 | 40 | 1013.8 | |
| 20260905181525 | 101 | 0.0 | 0.0 | 0.00 | 0.00 | 0.00 | 41 | 1013.9 | |
| 20260905181013 | 100 | 0.0 | 0.0 | 0.00 | 0.00 | 0.00 | 42 | 1013.8 | |
| 20260905180511 | 97 | 0.0 | 0.0 | 0.00 | 0.00 | 0.00 | 44 | 1013.9 | |
| 20260905180024 | 97 | 0.0 | 0.0 | 0.00 | 0.00 | 0.00 | 44 | 1013.9 | |
| 20260905175513 | 97 | 0.0 | 0.0 | 0.00 | 0.00 | 0.00 | 44 | 1014.0 | |
| 20260905175010 | 97 | 0.0 | 0.0 | 0.00 | 0.00 | 0.00 | 43 | 1014.0 | |
| 20260905174528 | 98 | 0.0 | 0.0 | 0.00 | 0.00 | 0.00 | 43 | 1014.1 | |
| 20260905174013 | 99 | 0.0 | 0.0 | 0.00 | 0.00 | 0.00 | 42 | 1014.1 | |
| 20260905173511 | 98 | 0.0 | 0.0 | 0.00 | 0.00 | 0.00 | 43 | 1014.2 | |
| 20260905173023 | 98 | 0.0 | 0.0 | 0.00 | 0.00 | 0.00 | 42 | 1014.2 | |
| 20260905172508 | 99 | 0.0 | 0.0 | 0.00 | 0.00 | 0.00 | 42 | 1014.3 | |
| 20260905172008 | 99 | 0.0 | 0.0 | 0.00 | 0.00 | 0.00 | 42 | 1014.4 | |
| 20260905171531 | 100 | 0.0 | 0.0 | 0.00 | 0.00 | 0.00 | 42 | 1014.4 | |
| 20260905171009 | 98 | 0.0 | 0.0 | 0.00 | 0.00 | 0.00 | 43 | 1014.4 | |
| 20260905170514 | 98 | 0.0 | 0.0 | 0.00 | 0.00 | 0.00 | 42 | 1014.5 | |
| 20260905170023 | 98 | 0.0 | 0.0 | 0.00 | 0.00 | 0.00 | 42 | 1014.6 | |
| 20260905165509 | 99 | 0.0 | 0.0 | 0.00 | 0.00 | 0.00 | 42 | 1014.6 | |
| 20260905165011 | 98 | 0.0 | 0.0 | 0.00 | 0.00 | 0.00 | 42 | 1014.7 | |
| 20260905164526 | 98 | 0.0 | 0.0 | 0.00 | 0.00 | 0.00 | 43 | 1014.8 | |
| 20260905164013 | 98 | 0.0 | 0.0 | 0.00 | 0.00 | 0.00 | 44 | 1014.9 | |
| 20260905163512 | 97 | 0.0 | 0.0 | 0.00 | 0.00 | 0.00 | 44 | 1014.8 | |
| 20260905163028 | 96 | 0.0 | 0.0 | 0.00 | 0.00 | 0.00 | 45 | 1014.9 | |
| 20260905162512 | 96 | 0.0 | 0.0 | 0.00 | 0.00 | 0.00 | 46 | 1015.0 | |
| 20260905162011 | 96 | 0.0 | 0.0 | 0.00 | 0.00 | 0.00 | 46 | 1014.9 | |
| 20260905161519 | 97 | 0.0 | 0.0 | 0.00 | 0.00 | 0.00 | 46 | 1015.0 | |
| 20260905161015 | 97 | 0.0 | 0.0 | 0.00 | 0.00 | 0.00 | 46 | 1015.1 | |
| 20260905160507 | 96 | 0.0 | 0.0 | 0.00 | 0.00 | 0.00 | 47 | 1015.1 | |
| 20260905160027 | 96 | 0.0 | 0.0 | 0.00 | 0.00 | 0.00 | 47 | 1015.0 | |
| 20260905155512 | 97 | 0.0 | 0.0 | 0.00 | 0.00 | 0.00 | 46 | 1015.1 | |
| 20260905155014 | 96 | 0.0 | 0.0 | 0.00 | 0.00 | 0.00 | 47 | 1015.1 | |
| 20260905154524 | 97 | 0.0 | 0.0 | 0.00 | 0.00 | 0.00 | 46 | 1015.1 | |
| 20260905154012 | 96 | 0.0 | 0.0 | 0.00 | 0.00 | 0.00 | 48 | 1015.2 | |
| 20260905153513 | 95 | 0.0 | 0.0 | 0.00 | 0.00 | 0.00 | 51 | 1015.2 | |
| 20260905153027 | 95 | 0.0 | 0.0 | 0.00 | 0.00 | 0.00 | 52 | 1015.2 | |
| 20260905152513 | 95 | 0.0 | 0.0 | 0.00 | 0.00 | 0.00 | 53 | 1015.2 | |
| 20260905152013 | 94 | 0.0 | 0.0 | 0.00 | 0.00 | 0.00 | 53 | 1015.2 | |
| 20260905151531 | 93 | 0.0 | 0.0 | 0.00 | 0.00 | 0.00 | 55 | 1015.2 | |
| 20260905151012 | 93 | 0.0 | 0.0 | 0.00 | 0.00 | 0.00 | 56 | 1015.2 | |
| 20260905150511 | 93 | 0.0 | 0.0 | 0.00 | 0.00 | 0.00 | 56 | 1015.3 | |
| 20260905150025 | 93 | 0.0 | 0.0 | 0.00 | 0.00 | 0.00 | 56 | 1015.3 | |
| 20260905145514 | 93 | 0.0 | 0.0 | 0.00 | 0.00 | 0.00 | 57 | 1015.3 | |
| 20260905145014 | 92 | 0.0 | 0.0 | 0.00 | 0.00 | 0.00 | 59 | 1015.3 | |
| 20260905144528 | 91 | 0.0 | 0.0 | 0.00 | 0.00 | 0.00 | 58 | 1015.2 | |
| 20260905144012 | 91 | 0.0 | 0.0 | 0.00 | 0.00 | 0.00 | 60 | 1015.2 | |
| 20260905143510 | 91 | 0.0 | 0.0 | 0.00 | 0.00 | 0.00 | 61 | 1015.2 | |
| 20260905143030 | 89 | 0.0 | 0.0 | 0.00 | 0.00 | 0.00 | 62 | 1015.2 | |
| 20260905142513 | 89 | 0.0 | 0.0 | 0.00 | 0.00 | 0.00 | 64 | 1015.1 | |
| 20260905142016 | 88 | 0.0 | 0.0 | 0.00 | 0.00 | 0.00 | 65 | 1015.2 | |
| 20260905141528 | 87 | 0.0 | 0.0 | 0.00 | 0.00 | 0.00 | 66 | 1015.2 | |
| 20260905141011 | 87 | 0.0 | 0.0 | 0.00 | 0.00 | 0.00 | 69 | 1015.2 | |
| 20260905140507 | 85 | 0.0 | 0.0 | 0.00 | 0.00 | 0.00 | 70 | 1015.2 | |
| 20260905140016 | 84 | 0.0 | 0.0 | 0.00 | 0.00 | 0.00 | 71 | 1015.3 | |
| 20260905135511 | 83 | 0.0 | 0.0 | 0.00 | 0.00 | 0.00 | 72 | 1015.3 | |
| 20260905135008 | 83 | 0.0 | 0.0 | 0.00 | 0.00 | 0.00 | 73 | 1015.3 | |
| 20260905134518 | 83 | 0.0 | 0.0 | 0.00 | 0.00 | 0.00 | 73 | 1015.3 | |
| 20260905134014 | 82 | 0.0 | 0.0 | 0.00 | 0.00 | 0.00 | 75 | 1015.2 | |
| 20260905133512 | 81 | 0.0 | 0.0 | 0.00 | 0.00 | 0.00 | 77 | 1015.2 | |
| 20260905133013 | 80 | 0.0 | 0.0 | 0.00 | 0.00 | 0.00 | 79 | 1015.2 | |
| 20260905132509 | 79 | 0.0 | 0.0 | 0.00 | 0.00 | 0.00 | 80 | 1015.1 | |
| 20260905132014 | 78 | 0.0 | 0.0 | 0.00 | 0.00 | 0.00 | 81 | 1015.2 | |
| 20260905131527 | 77 | 0.0 | 0.0 | 0.00 | 0.00 | 0.00 | 82 | 1015.1 | |
| 20260905131011 | 77 | 0.0 | 0.0 | 0.00 | 0.00 | 0.00 | 83 | 1015.1 | |
| 20260905130512 | 76 | 0.0 | 0.0 | 0.00 | 0.00 | 0.00 | 85 | 1015.0 | |
| 20260905130014 | 75 | 0.0 | 0.0 | 0.00 | 0.00 | 0.00 | 87 | 1015.0 | |
| 20260905125510 | 74 | 0.0 | 0.0 | 0.00 | 0.00 | 0.00 | 89 | 1015.0 | |
| 20260905125011 | 73 | 0.0 | 0.0 | 0.00 | 0.00 | 0.00 | 90 | 1015.0 | |
| 20260905124524 | 73 | 0.0 | 0.0 | 0.00 | 0.00 | 0.00 | 90 | 1014.9 | |
| 20260905124010 | 72 | 0.0 | 0.0 | 0.00 | 0.00 | 0.00 | 91 | 1014.9 | |
| 20260905123509 | 71 | 0.0 | 0.0 | 0.00 | 0.00 | 0.00 | 91 | 1014.8 | |
| 20260905123024 | 71 | 0.0 | 0.0 | 0.00 | 0.00 | 0.00 | 92 | 1014.7 | |
| 20260905122517 | 71 | 0.0 | 0.0 | 0.00 | 0.00 | 0.00 | 91 | 1014.7 | |
| 20260905122006 | 71 | 0.0 | 0.0 | 0.00 | 0.00 | 0.00 | 92 | 1014.6 | |
| 20260905121531 | 70 | 0.0 | 0.0 | 0.00 | 0.00 | 0.00 | 92 | 1014.7 | |
| 20260905121014 | 70 | 0.0 | 0.0 | 0.00 | 0.00 | 0.00 | 92 | 1014.7 | |
| 20260905120514 | 70 | 0.0 | 0.0 | 0.00 | 0.00 | 0.00 | 92 | 1014.6 | |
| 20260905120026 | 71 | 0.0 | 0.0 | 0.00 | 0.00 | 0.00 | 91 | 1014.6 | |
| 20260905115515 | 71 | 0.0 | 0.0 | 0.00 | 0.00 | 0.00 | 91 | 1014.5 | |
| 20260905115014 | 71 | 0.0 | 0.0 | 0.00 | 0.00 | 0.00 | 91 | 1014.5 | |
| 20260905114516 | 71 | 0.0 | 0.0 | 0.00 | 0.00 | 0.00 | 91 | 1014.4 | |
| 20260905114009 | 71 | 0.0 | 0.0 | 0.00 | 0.00 | 0.00 | 91 | 1014.4 | |
| 20260905113511 | 71 | 0.0 | 0.0 | 0.00 | 0.00 | 0.00 | 91 | 1014.4 | |
| 20260905113021 | 71 | 0.0 | 0.0 | 0.00 | 0.00 | 0.00 | 92 | 1014.4 | |
| 20260905112510 | 70 | 0.0 | 0.0 | 0.00 | 0.00 | 0.00 | 92 | 1014.3 | |
| 20260905112013 | 70 | 0.0 | 0.0 | 0.00 | 0.00 | 0.00 | 92 | 1014.2 | |
| 20260905111529 | 70 | 0.0 | 0.0 | 0.00 | 0.00 | 0.00 | 91 | 1014.3 | |
| 20260905111006 | 70 | 0.0 | 0.0 | 0.00 | 0.00 | 0.00 | 91 | 1014.3 | |
| 20260905110503 | 71 | 0.0 | 0.0 | 0.00 | 0.00 | 0.00 | 91 | 1014.3 | |
| 20260905110008 | 71 | 0.0 | 0.0 | 0.00 | 0.00 | 0.00 | 91 | 1014.4 | |
| 20260905105508 | 71 | 0.0 | 0.0 | 0.00 | 0.00 | 0.00 | 91 | 1014.4 | |
| 20260905105011 | 71 | 0.0 | 0.0 | 0.00 | 0.00 | 0.00 | 91 | 1014.4 | |
| 20260905104504 | 70 | 0.0 | 0.0 | 0.00 | 0.00 | 0.00 | 91 | 1014.4 | |
| 20260905104004 | 71 | 0.0 | 0.0 | 0.00 | 0.00 | 0.00 | 91 | 1014.4 | |
| 20260905103509 | 71 | 0.0 | 0.0 | 0.00 | 0.00 | 0.00 | 91 | 1014.3 | |
| 20260905103006 | 71 | 0.0 | 0.0 | 0.00 | 0.00 | 0.00 | 91 | 1014.4 | |
| 20260905102503 | 71 | 0.0 | 0.0 | 0.00 | 0.00 | 0.00 | 90 | 1014.4 | |
| 20260905102006 | 71 | 0.0 | 0.0 | 0.00 | 0.00 | 0.00 | 90 | 1014.4 | |
| 20260905101504 | 72 | 0.0 | 0.0 | 0.00 | 0.00 | 0.00 | 90 | 1014.5 | |
| 20260905101002 | 72 | 0.0 | 0.0 | 0.00 | 0.00 | 0.00 | 90 | 1014.5 | |
| 20260905100504 | 72 | 0.0 | 0.0 | 0.00 | 0.00 | 0.00 | 90 | 1014.5 | |
| 20260905100008 | 71 | 0.0 | 0.0 | 0.00 | 0.00 | 0.00 | 90 | 1014.5 | |
| 20260905095506 | 71 | 0.0 | 0.0 | 0.00 | 0.00 | 0.00 | 90 | 1014.4 | |
| 20260905095004 | 71 | 0.0 | 0.0 | 0.00 | 0.00 | 0.00 | 90 | 1014.3 | |
| 20260905094513 | 71 | 0.0 | 0.0 | 0.00 | 0.00 | 0.00 | 90 | 1014.4 | |
| 20260905094007 | 71 | 0.0 | 0.0 | 0.00 | 0.00 | 0.00 | 89 | 1014.4 | |
| 20260905093503 | 71 | 0.0 | 0.0 | 0.00 | 0.00 | 0.00 | 89 | 1014.4 | |
| 20260905093010 | 72 | 0.0 | 0.0 | 0.00 | 0.00 | 0.00 | 89 | 1014.4 | |
| 20260905092509 | 72 | 0.0 | 0.0 | 0.00 | 0.00 | 0.00 | 90 | 1014.4 | |
| 20260905092008 | 72 | 0.0 | 0.0 | 0.00 | 0.00 | 0.00 | 90 | 1014.4 | |
| 20260905091509 | 71 | 0.0 | 0.0 | 0.00 | 0.00 | 0.00 | 90 | 1014.3 | |
| 20260905091007 | 71 | 0.0 | 0.0 | 0.00 | 0.00 | 0.00 | 89 | 1014.3 | |
| 20260905090502 | 71 | 0.0 | 0.0 | 0.00 | 0.00 | 0.00 | 89 | 1014.3 | |
| 20260905090005 | 72 | 0.0 | 0.0 | 0.00 | 0.00 | 0.00 | 90 | 1014.2 | |
| 20260905085504 | 72 | 0.0 | 0.0 | 0.00 | 0.00 | 0.00 | 90 | 1014.2 | |
| 20260905085003 | 72 | 0.0 | 0.0 | 0.00 | 0.00 | 0.00 | 90 | 1014.1 | |
| 20260905084509 | 71 | 0.0 | 0.0 | 0.00 | 0.00 | 0.00 | 89 | 1014.2 | |
| 20260905084003 | 72 | 0.0 | 0.0 | 0.00 | 0.00 | 0.00 | 89 | 1014.2 | |
| 20260905083508 | 72 | 0.0 | 0.0 | 0.00 | 0.00 | 0.00 | 89 | 1014.1 | |
| 20260905083013 | 72 | 0.0 | 0.0 | 0.00 | 0.00 | 0.00 | 88 | 1014.1 | |
| 20260905082503 | 72 | 0.0 | 0.0 | 0.00 | 0.00 | 0.00 | 88 | 1014.1 | |
| 20260905082003 | 72 | 0.0 | 0.0 | 0.00 | 0.00 | 0.00 | 88 | 1014.1 | |
| 20260905081518 | 72 | 0.0 | 0.0 | 0.00 | 0.00 | 0.00 | 88 | 1014.1 | |
| 20260905081012 | 72 | 0.0 | 0.0 | 0.00 | 0.00 | 0.00 | 88 | 1014.1 | |
| 20260905080503 | 73 | 0.0 | 0.0 | 0.00 | 0.00 | 0.00 | 88 | 1014.1 | |
| 20260905080019 | 73 | 0.0 | 0.0 | 0.00 | 0.00 | 0.00 | 88 | 1014.1 | |
| 20260905075511 | 73 | 0.0 | 0.0 | 0.00 | 0.00 | 0.00 | 88 | 1014.0 | |
| 20260905075003 | 73 | 0.0 | 0.0 | 0.00 | 0.00 | 0.00 | 88 | 1014.1 | |
| 20260905074506 | 73 | 0.0 | 0.0 | 0.00 | 0.00 | 0.00 | 88 | 1014.0 | |
| 20260905074004 | 73 | 0.0 | 0.0 | 0.00 | 0.00 | 0.00 | 88 | 1014.1 | |
| 20260905073504 | 73 | 0.0 | 0.0 | 0.00 | 0.00 | 0.00 | 88 | 1014.0 | |
| 20260905073007 | 73 | 0.0 | 0.0 | 0.00 | 0.00 | 0.00 | 87 | 1014.0 | |
| 20260905072505 | 73 | 0.0 | 0.0 | 0.00 | 0.00 | 0.00 | 87 | 1014.0 | |
| 20260905072003 | 73 | 0.0 | 0.0 | 0.00 | 0.00 | 0.00 | 87 | 1014.0 | |
| 20260905071506 | 73 | 0.0 | 0.0 | 0.00 | 0.00 | 0.00 | 87 | 1014.0 | |
| 20260905071006 | 73 | 0.0 | 0.0 | 0.00 | 0.00 | 0.00 | 87 | 1014.0 | |
| 20260905070508 | 73 | 0.0 | 0.0 | 0.00 | 0.00 | 0.00 | 87 | 1014.0 | |
| 20260905070028 | 73 | 0.0 | 0.0 | 0.00 | 0.00 | 0.00 | 87 | 1014.0 | |
| 20260905065503 | 73 | 0.0 | 0.0 | 0.00 | 0.00 | 0.00 | 87 | 1014.1 | |
| 20260905065013 | 73 | 0.0 | 0.0 | 0.00 | 0.00 | 0.00 | 86 | 1014.1 | |
| 20260905064524 | 73 | 0.0 | 0.0 | 0.00 | 0.00 | 0.00 | 86 | 1014.1 | |
| 20260905064004 | 73 | 0.0 | 0.0 | 0.00 | 0.00 | 0.00 | 87 | 1014.2 | |
| 20260905063506 | 73 | 0.0 | 0.0 | 0.00 | 0.00 | 0.00 | 87 | 1014.1 | |
| 20260905063008 | 73 | 0.0 | 0.0 | 0.00 | 0.00 | 0.00 | 87 | 1014.3 | |
| 20260905062504 | 73 | 0.0 | 0.0 | 0.00 | 0.00 | 0.00 | 87 | 1014.2 | |
| 20260905062004 | 73 | 0.0 | 0.0 | 0.00 | 0.00 | 0.00 | 87 | 1014.2 | |
| 20260905061514 | 73 | 0.0 | 0.0 | 0.00 | 0.00 | 0.00 | 87 | 1014.2 | |
| 20260905061007 | 73 | 0.0 | 0.0 | 0.00 | 0.00 | 0.00 | 87 | 1014.2 | |
| 20260905060507 | 74 | 0.0 | 0.0 | 0.00 | 0.00 | 0.00 | 87 | 1014.2 | |
| 20260905060013 | 74 | 0.0 | 0.0 | 0.00 | 0.00 | 0.00 | 87 | 1014.3 | |
| 20260905055510 | 74 | 0.0 | 0.0 | 0.00 | 0.00 | 0.00 | 88 | 1014.2 | |
| 20260905055011 | 74 | 0.0 | 0.0 | 0.00 | 0.00 | 0.00 | 87 | 1014.3 | |
| 20260905054508 | 73 | 0.0 | 0.0 | 0.00 | 0.00 | 0.00 | 87 | 1014.3 | |
| 20260905054008 | 73 | 0.0 | 0.0 | 0.00 | 0.00 | 0.00 | 87 | 1014.3 | |
| 20260905053510 | 74 | 0.0 | 0.0 | 0.00 | 0.00 | 0.00 | 86 | 1014.4 | |
| 20260905053027 | 74 | 0.0 | 0.0 | 0.00 | 0.00 | 0.00 | 86 | 1014.3 | |
| 20260905052504 | 74 | 0.0 | 0.0 | 0.00 | 0.00 | 0.00 | 85 | 1014.4 | |
| 20260905052006 | 75 | 0.0 | 0.0 | 0.00 | 0.00 | 0.00 | 83 | 1014.4 | |
| 20260905051512 | 75 | 0.0 | 0.0 | 0.00 | 0.00 | 0.00 | 83 | 1014.5 | |
| 20260905051003 | 75 | 0.0 | 0.0 | 0.00 | 0.00 | 0.00 | 82 | 1014.5 | |
| 20260905050503 | 76 | 0.0 | 0.0 | 0.00 | 0.00 | 0.00 | 80 | 1014.5 | |
| 20260905050017 | 76 | 0.0 | 0.0 | 0.00 | 0.00 | 0.00 | 80 | 1014.4 | |
| 20260905045507 | 76 | 0.0 | 0.0 | 0.00 | 0.00 | 0.00 | 81 | 1014.4 | |
| 20260905045003 | 76 | 0.0 | 0.0 | 0.00 | 0.00 | 0.00 | 80 | 1014.4 | |
| 20260905044520 | 76 | 0.0 | 0.0 | 0.00 | 0.00 | 0.00 | 79 | 1014.4 | |
| 20260905044010 | 77 | 0.0 | 0.0 | 0.00 | 0.00 | 0.00 | 78 | 1014.4 | |
| 20260905043504 | 77 | 0.0 | 0.0 | 0.00 | 0.00 | 0.00 | 78 | 1014.5 | |
| 20260905043018 | 77 | 0.0 | 0.0 | 0.00 | 0.00 | 0.00 | 78 | 1014.5 | |
| 20260905042513 | 77 | 0.0 | 0.0 | 0.00 | 0.00 | 0.00 | 78 | 1014.3 | |
| 20260905042017 | 77 | 0.0 | 0.0 | 0.00 | 0.00 | 0.00 | 78 | 1014.3 | |
| 20260905041511 | 77 | 0.0 | 0.0 | 0.00 | 0.00 | 0.00 | 78 | 1014.4 | |
| 20260905041003 | 78 | 0.0 | 0.0 | 0.00 | 0.00 | 0.00 | 77 | 1014.4 | |
| 20260905040503 | 78 | 0.0 | 0.0 | 0.00 | 0.00 | 0.00 | 77 | 1014.4 |